Time;durP1;ratioP1;P1;durP2;ratioP2;P2;SDS_P1;SDS_P2;PMS_P1;PMS_P2;Temp;Humidity;BMP_temperature;BMP_pressure;BME280_temperature;BME280_humidity;BME280_pressure;Samples;Min_cycle;Max_cycle;Signal;HPM_P1;HPM_P2
2022/10/26 00:00:48;;;;;;;8.80;2.42;;;15.80;99.90;;;;;;4987392;28;20045;-71
2022/10/26 00:03:14;;;;;;;12.05;2.10;;;15.90;99.90;;;;;;4983461;28;20121;-73
2022/10/26 00:05:40;;;;;;;10.68;2.03;;;15.90;99.90;;;;;;4986300;28;20035;-73
2022/10/26 00:08:06;;;;;;;12.68;2.30;;;15.90;99.90;;;;;;4987980;28;20401;-72
2022/10/26 00:10:37;;;;;;;10.05;2.20;;;16.00;99.90;;;;;;4986235;28;20060;-73
2022/10/26 00:13:04;;;;;;;11.05;2.10;;;16.00;99.90;;;;;;4983510;28;20525;-72
2022/10/26 00:15:30;;;;;;;7.85;1.80;;;16.00;99.90;;;;;;4984528;28;20030;-72
2022/10/26 00:17:56;;;;;;;10.90;2.15;;;16.10;99.90;;;;;;4984468;28;20034;-72
2022/10/26 00:20:22;;;;;;;12.55;1.88;;;16.10;99.90;;;;;;4980433;28;20093;-72
2022/10/26 00:22:47;;;;;;;12.85;2.28;;;16.10;99.90;;;;;;4977030;28;20034;-72
2022/10/26 00:25:13;;;;;;;11.10;2.20;;;16.20;99.90;;;;;;4980288;28;20030;-73
2022/10/26 00:27:38;;;;;;;9.38;1.98;;;16.20;99.90;;;;;;4983966;28;20053;-72
2022/10/26 00:30:05;;;;;;;11.95;2.22;;;16.20;99.90;;;;;;4985901;28;20478;-73
2022/10/26 00:32:31;;;;;;;12.52;2.05;;;16.20;99.90;;;;;;4986359;28;20042;-72
2022/10/26 00:34:57;;;;;;;11.93;2.33;;;16.30;99.90;;;;;;4985334;28;20049;-73
2022/10/26 00:37:22;;;;;;;9.98;1.98;;;16.40;99.90;;;;;;4986877;28;20120;-73
2022/10/26 00:39:48;;;;;;;13.13;2.40;;;16.40;99.90;;;;;;4986551;28;20038;-72
2022/10/26 00:42:18;;;;;;;12.88;1.85;;;16.40;99.90;;;;;;4986942;28;20033;-73
2022/10/26 00:44:43;;;;;;;;;;;16.50;99.90;;;;;;4966749;28;20061;-73
2022/10/26 00:47:19;;;;;;;12.77;2.25;;;16.50;99.90;;;;;;4983574;28;19969;-72
2022/10/26 00:49:47;;;;;;;13.60;2.35;;;16.60;99.90;;;;;;4986241;28;20046;-72
2022/10/26 00:52:14;;;;;;;12.68;2.20;;;16.50;99.90;;;;;;4986262;28;20026;-75
2022/10/26 00:54:40;;;;;;;10.40;2.25;;;16.50;99.90;;;;;;4984212;28;20049;-72
2022/10/26 00:57:06;;;;;;;12.13;1.92;;;16.60;99.90;;;;;;4987009;28;20026;-72
2022/10/26 00:59:32;;;;;;;11.52;2.42;;;16.60;99.90;;;;;;4982034;28;20408;-73
2022/10/26 01:01:58;;;;;;;11.50;3.22;;;16.60;99.90;;;;;;4985673;28;20042;-72
2022/10/26 01:04:24;;;;;;;12.88;2.28;;;16.60;99.90;;;;;;4982300;28;20107;-72
2022/10/26 01:06:50;;;;;;;14.68;2.35;;;16.60;99.90;;;;;;4969415;28;20065;-72
2022/10/26 01:09:17;;;;;;;12.23;2.22;;;16.60;99.90;;;;;;4982965;28;20030;-72
2022/10/26 01:11:43;;;;;;;11.95;2.38;;;16.60;99.90;;;;;;4985516;28;20052;-72
2022/10/26 01:14:11;;;;;;;10.00;2.40;;;16.60;99.90;;;;;;4983514;28;20069;-71
2022/10/26 01:16:55;;;;;;;14.02;2.30;;;16.60;99.90;;;;;;4983756;28;20056;-72
2022/10/26 01:19:50;;;;;;;12.57;2.20;;;16.60;99.90;;;;;;4970239;28;20034;-73
2022/10/26 01:22:34;;;;;;;12.57;2.47;;;16.60;99.90;;;;;;4982643;28;20177;-71
2022/10/26 01:25:24;;;;;;;11.68;1.90;;;16.60;99.90;;;;;;4986623;28;20088;-73
2022/10/26 01:27:51;;;;;;;9.20;2.05;;;16.60;99.90;;;;;;4966964;28;20038;-71
2022/10/26 01:30:42;;;;;;;11.48;2.33;;;16.60;99.90;;;;;;4984747;28;20137;-73
2022/10/26 01:33:08;;;;;;;8.15;2.47;;;16.60;99.90;;;;;;4986322;28;20049;-73
2022/10/26 01:35:49;;;;;;;12.00;2.53;;;16.60;99.90;;;;;;4980333;28;20039;-72
2022/10/26 01:38:48;;;;;;;10.88;2.05;;;16.60;99.90;;;;;;4984339;28;20432;-72
2022/10/26 01:41:43;;;;;;;10.82;2.83;;;16.60;99.90;;;;;;4978429;28;20488;-78
2022/10/26 01:44:24;;;;;;;10.32;2.20;;;16.60;99.90;;;;;;4967044;28;20081;-72
2022/10/26 01:46:53;;;;;;;8.10;1.70;;;16.60;99.90;;;;;;4975756;28;20030;-72
2022/10/26 01:49:24;;;;;;;12.45;2.25;;;16.60;99.90;;;;;;4972779;28;20496;-72
2022/10/26 01:51:50;;;;;;;12.60;2.10;;;16.70;99.90;;;;;;4979831;28;20034;-74
2022/10/26 01:54:16;;;;;;;15.55;2.40;;;16.60;99.90;;;;;;4986863;28;20034;-72
2022/10/26 01:56:45;;;;;;;11.32;2.03;;;16.70;99.90;;;;;;4968941;28;20035;-72
2022/10/26 01:59:50;;;;;;;8.38;2.30;;;16.70;99.90;;;;;;4987465;28;20485;-73
2022/10/26 02:02:35;;;;;;;9.02;2.50;;;16.80;99.90;;;;;;4986461;28;20142;-72
2022/10/26 02:05:15;;;;;;;14.45;2.13;;;16.80;99.90;;;;;;4988884;28;20032;-73
2022/10/26 02:07:49;;;;;;;11.07;2.22;;;16.80;99.90;;;;;;4987158;28;20493;-74
2022/10/26 02:10:27;;;;;;;11.15;2.45;;;16.80;99.90;;;;;;4976417;28;20035;-76
2022/10/26 02:13:02;;;;;;;15.55;2.33;;;16.70;99.90;;;;;;4970694;28;20042;-72
2022/10/26 02:15:42;;;;;;;13.10;2.25;;;16.80;99.90;;;;;;4978491;28;20043;-73
2022/10/26 02:18:32;;;;;;;12.63;2.22;;;16.80;99.90;;;;;;4970883;28;20035;-72
2022/10/26 02:21:14;;;;;;;14.43;2.78;;;16.80;99.90;;;;;;4990520;28;20126;-73
2022/10/26 02:23:44;;;;;;;10.65;2.70;;;16.80;99.90;;;;;;4958085;28;20038;-74
2022/10/26 02:26:12;;;;;;;13.73;2.30;;;16.70;99.90;;;;;;4977632;28;20070;-76
2022/10/26 02:28:43;;;;;;;14.95;2.88;;;16.80;99.90;;;;;;4974304;28;20034;-73
2022/10/26 02:31:11;;;;;;;10.93;2.45;;;16.80;99.90;;;;;;4969958;28;20057;-73
2022/10/26 02:33:40;;;;;;;12.68;2.45;;;16.80;99.90;;;;;;4982898;28;20039;-73
2022/10/26 02:36:11;;;;;;;11.55;2.17;;;16.80;99.90;;;;;;4987044;28;20042;-74
2022/10/26 02:38:38;;;;;;;9.50;2.30;;;16.70;99.90;;;;;;4982054;28;20130;-73
2022/10/26 02:41:05;;;;;;;12.15;2.25;;;16.70;99.90;;;;;;4968990;28;20113;-73
2022/10/26 02:43:40;;;;;;;12.25;2.63;;;16.70;99.90;;;;;;4988666;28;20041;-72
2022/10/26 02:46:09;;;;;;;12.07;2.83;;;16.80;99.90;;;;;;4986922;28;20045;-73
2022/10/26 02:48:35;;;;;;;11.45;2.92;;;16.80;99.90;;;;;;4982275;28;20026;-74
2022/10/26 02:51:19;;;;;;;14.77;2.58;;;16.80;99.90;;;;;;4986599;28;20042;-72
2022/10/26 02:54:09;;;;;;;12.52;2.70;;;16.80;99.90;;;;;;4983552;28;20121;-72
2022/10/26 02:56:44;;;;;;;12.57;2.47;;;16.80;99.90;;;;;;4967379;28;20450;-72
2022/10/26 02:59:13;;;;;;;9.88;2.08;;;16.70;99.90;;;;;;4988158;28;20089;-72
2022/10/26 03:01:39;;;;;;;14.27;2.60;;;16.70;99.90;;;;;;4983753;28;20032;-72
2022/10/26 03:04:05;;;;;;;10.75;2.38;;;16.70;99.90;;;;;;4975270;28;20062;-71
2022/10/26 03:06:30;;;;;;;13.45;2.90;;;16.70;99.90;;;;;;4978125;28;20446;-72
2022/10/26 03:08:56;;;;;;;12.82;2.50;;;16.70;99.90;;;;;;4971306;28;20438;-72
2022/10/26 03:11:21;;;;;;;16.48;2.60;;;16.70;99.90;;;;;;4986241;28;20030;-73
2022/10/26 03:13:47;;;;;;;13.68;2.28;;;16.70;99.90;;;;;;4986590;28;20034;-73
2022/10/26 03:16:13;;;;;;;9.98;2.65;;;16.70;99.90;;;;;;4983428;28;20829;-73
2022/10/26 03:18:38;;;;;;;8.60;2.45;;;16.70;99.90;;;;;;4986228;28;20042;-72
2022/10/26 03:21:04;;;;;;;14.27;3.00;;;16.70;99.90;;;;;;4987844;28;20481;-73
2022/10/26 03:23:30;;;;;;;13.07;2.70;;;16.60;99.90;;;;;;4987147;28;20065;-73
2022/10/26 03:25:56;;;;;;;10.20;2.13;;;16.60;99.90;;;;;;4987959;28;20034;-73
2022/10/26 03:28:22;;;;;;;13.27;2.78;;;16.60;99.90;;;;;;4986146;28;20030;-73
2022/10/26 03:30:48;;;;;;;12.60;2.83;;;16.60;99.90;;;;;;4974187;28;20047;-72
2022/10/26 03:33:13;;;;;;;11.70;2.47;;;16.60;99.90;;;;;;4984312;28;20038;-73
2022/10/26 03:35:39;;;;;;;12.48;2.05;;;16.60;99.90;;;;;;4985049;28;20033;-73
2022/10/26 03:38:05;;;;;;;9.43;2.78;;;16.50;99.90;;;;;;4968543;28;20034;-73
2022/10/26 03:40:30;;;;;;;10.32;2.55;;;16.60;99.90;;;;;;4987790;28;20092;-74
2022/10/26 03:42:56;;;;;;;10.60;2.80;;;16.60;99.90;;;;;;4985331;28;20066;-73
2022/10/26 03:45:21;;;;;;;9.82;2.47;;;16.60;99.90;;;;;;4987106;28;20038;-72
2022/10/26 03:47:48;;;;;;;12.57;2.65;;;16.60;99.90;;;;;;4980313;28;20134;-74
2022/10/26 03:50:17;;;;;;;16.08;3.13;;;16.60;99.90;;;;;;4971956;28;20034;-72
2022/10/26 03:52:43;;;;;;;12.10;3.08;;;16.60;99.90;;;;;;4981749;28;20041;-72
2022/10/26 03:55:09;;;;;;;10.43;2.40;;;16.60;99.90;;;;;;4984133;28;20042;-73
2022/10/26 03:57:43;;;;;;;17.50;3.05;;;16.70;99.90;;;;;;4969899;28;20529;-73
2022/10/26 04:00:14;;;;;;;15.02;3.00;;;16.70;99.90;;;;;;4985304;28;20037;-73
2022/10/26 04:02:41;;;;;;;16.35;3.33;;;16.70;99.90;;;;;;4985336;28;20034;-74
2022/10/26 04:05:07;;;;;;;15.05;2.50;;;16.70;99.90;;;;;;4987762;28;20077;-73
2022/10/26 04:07:33;;;;;;;14.38;2.88;;;16.70;99.90;;;;;;4983801;28;20045;-73
2022/10/26 04:09:58;;;;;;;13.70;3.13;;;16.70;99.90;;;;;;4985421;28;20034;-73
2022/10/26 04:12:24;;;;;;;15.20;2.80;;;16.70;99.90;;;;;;4969092;28;20072;-72
2022/10/26 04:14:50;;;;;;;12.65;2.90;;;16.80;99.90;;;;;;4986779;28;20394;-74
2022/10/26 04:17:15;;;;;;;14.30;2.72;;;16.80;99.90;;;;;;4985901;28;20022;-72
2022/10/26 04:19:41;;;;;;;14.02;2.60;;;16.70;99.90;;;;;;4987118;28;20034;-74
2022/10/26 04:22:06;;;;;;;16.63;3.13;;;16.70;99.90;;;;;;4984376;28;20145;-73
2022/10/26 04:24:32;;;;;;;14.77;3.00;;;16.70;99.90;;;;;;4978413;28;20053;-74
2022/10/26 04:26:57;;;;;;;13.52;2.70;;;16.70;99.90;;;;;;4970807;28;20038;-73
2022/10/26 04:29:23;;;;;;;14.43;2.72;;;16.70;99.90;;;;;;4969122;28;20042;-73
2022/10/26 04:31:48;;;;;;;13.05;2.75;;;16.70;99.90;;;;;;4987340;28;20053;-72
2022/10/26 04:34:14;;;;;;;12.23;2.40;;;16.70;99.90;;;;;;4981184;28;20460;-73
2022/10/26 04:36:40;;;;;;;13.50;2.95;;;16.70;99.90;;;;;;4976773;28;20070;-72
2022/10/26 04:39:05;;;;;;;12.60;2.50;;;16.60;99.90;;;;;;4987677;28;20038;-72
2022/10/26 04:41:31;;;;;;;15.80;3.05;;;16.60;99.90;;;;;;4986087;28;20088;-73
2022/10/26 04:43:57;;;;;;;12.02;2.25;;;16.60;99.90;;;;;;4986930;28;20042;-73
2022/10/26 04:46:22;;;;;;;19.50;3.35;;;16.50;99.90;;;;;;4986392;28;20037;-72
2022/10/26 04:48:48;;;;;;;11.15;2.13;;;16.50;99.90;;;;;;4987928;28;20125;-72
2022/10/26 04:51:13;;;;;;;14.38;2.70;;;16.50;99.90;;;;;;4967883;28;20030;-72
2022/10/26 04:53:39;;;;;;;17.13;2.67;;;16.40;99.90;;;;;;4972066;28;20121;-72
2022/10/26 04:56:05;;;;;;;11.23;2.53;;;16.30;99.90;;;;;;4968053;28;20046;-73
2022/10/26 04:58:30;;;;;;;12.63;2.22;;;16.40;99.90;;;;;;4976220;28;20063;-73
2022/10/26 05:00:56;;;;;;;18.27;2.95;;;16.30;99.90;;;;;;4987214;28;20477;-72
2022/10/26 05:03:22;;;;;;;14.15;2.78;;;16.30;99.90;;;;;;4975990;28;20083;-72
2022/10/26 05:05:47;;;;;;;15.57;2.88;;;16.30;99.90;;;;;;4983645;28;20092;-74
2022/10/26 05:08:14;;;;;;;11.80;2.30;;;16.30;99.90;;;;;;4983476;28;20038;-73
2022/10/26 05:10:40;;;;;;;13.30;2.40;;;16.30;99.90;;;;;;4987553;28;20034;-74
2022/10/26 05:13:06;;;;;;;15.75;2.80;;;16.30;99.90;;;;;;4984721;28;20046;-73
2022/10/26 05:15:31;;;;;;;16.30;2.75;;;16.30;99.90;;;;;;4984201;28;20045;-73
2022/10/26 05:18:02;;;;;;;15.00;2.53;;;16.40;99.90;;;;;;4967316;28;20428;-73
2022/10/26 05:20:30;;;;;;;13.90;2.10;;;16.40;99.90;;;;;;4974974;28;20459;-73
2022/10/26 05:22:57;;;;;;;14.48;2.72;;;16.40;99.90;;;;;;4967211;28;20042;-74
2022/10/26 05:25:23;;;;;;;16.05;3.05;;;16.40;99.90;;;;;;4979624;28;20035;-73
2022/10/26 05:27:49;;;;;;;13.75;2.70;;;16.40;99.90;;;;;;4972413;28;20026;-73
2022/10/26 05:30:15;;;;;;;14.73;2.80;;;16.50;99.90;;;;;;4978266;28;20027;-72
2022/10/26 05:32:40;;;;;;;15.75;3.00;;;16.50;99.90;;;;;;4981554;28;20034;-72
2022/10/26 05:35:06;;;;;;;12.43;2.83;;;16.50;99.90;;;;;;4985564;28;20046;-72
2022/10/26 05:37:32;;;;;;;16.10;2.50;;;16.50;99.90;;;;;;4984911;28;20057;-73
2022/10/26 05:39:57;;;;;;;14.07;2.22;;;16.60;99.90;;;;;;4986838;28;20034;-73
2022/10/26 05:42:24;;;;;;;13.15;2.63;;;16.60;99.90;;;;;;4965805;28;20035;-73
2022/10/26 05:44:50;;;;;;;13.23;1.98;;;16.60;99.90;;;;;;4984879;28;20074;-74
2022/10/26 05:47:16;;;;;;;10.43;2.38;;;16.60;99.90;;;;;;4984045;28;20061;-74
2022/10/26 05:49:42;;;;;;;14.02;3.13;;;16.60;99.90;;;;;;4985211;28;20042;-74
2022/10/26 05:52:07;;;;;;;14.60;2.83;;;16.60;99.90;;;;;;4964126;28;20492;-73
2022/10/26 05:54:33;;;;;;;17.67;2.40;;;16.60;99.90;;;;;;4984887;28;20421;-73
2022/10/26 05:56:59;;;;;;;11.93;2.38;;;16.60;99.90;;;;;;4986495;28;20168;-73
2022/10/26 05:59:24;;;;;;;13.73;2.35;;;16.60;99.90;;;;;;4984751;28;20499;-73
2022/10/26 06:02:13;;;;;;;11.50;3.38;;;16.60;99.90;;;;;;4978237;28;20511;-73
2022/10/26 06:04:49;;;;;;;18.95;3.42;;;16.60;99.90;;;;;;4983478;28;20030;-72
2022/10/26 06:07:18;;;;;;;19.30;2.67;;;16.60;99.90;;;;;;4975377;28;20750;-72
2022/10/26 06:09:44;;;;;;;13.55;2.53;;;16.60;99.90;;;;;;4983484;28;20113;-73
2022/10/26 06:12:11;;;;;;;9.90;2.00;;;16.60;99.90;;;;;;4974373;28;20045;-74
2022/10/26 06:14:37;;;;;;;13.50;2.13;;;16.70;99.90;;;;;;4979712;28;20131;-72
2022/10/26 06:17:37;;;;;;;16.35;2.63;;;16.70;99.90;;;;;;4980094;28;20030;-72
2022/10/26 06:20:34;;;;;;;10.45;1.75;;;16.60;99.90;;;;;;4967228;28;20177;-72
2022/10/26 06:23:25;;;;;;;16.40;2.15;;;16.60;99.90;;;;;;4970381;28;20039;-73
2022/10/26 06:26:12;;;;;;;13.80;2.22;;;16.60;99.90;;;;;;4975245;28;20038;-73
2022/10/26 06:28:42;;;;;;;14.60;2.38;;;16.60;99.90;;;;;;4986052;28;20041;-73
2022/10/26 06:31:13;;;;;;;15.90;2.78;;;16.60;99.90;;;;;;4985178;28;20031;-73
2022/10/26 06:33:39;;;;;;;14.95;2.72;;;16.60;99.90;;;;;;4983864;28;20097;-73
2022/10/26 06:36:12;;;;;;;11.65;1.90;;;16.60;99.90;;;;;;4966789;28;20033;-72
2022/10/26 06:38:43;;;;;;;14.30;2.15;;;16.60;99.90;;;;;;4977516;28;20037;-72
2022/10/26 06:41:10;;;;;;;12.38;2.42;;;16.60;99.90;;;;;;4987449;28;20105;-73
2022/10/26 06:43:36;;;;;;;16.25;2.50;;;16.60;99.90;;;;;;4983645;28;20061;-73
2022/10/26 06:46:26;;;;;;;17.85;2.92;;;16.50;99.90;;;;;;4987067;28;20094;-73
2022/10/26 06:49:07;;;;;;;13.60;2.47;;;16.50;99.90;;;;;;4984091;28;20037;-73
2022/10/26 06:51:41;;;;;;;12.48;2.40;;;16.50;99.90;;;;;;4982884;28;20052;-73
2022/10/26 06:54:41;;;;;;;21.13;2.67;;;16.50;99.90;;;;;;4983150;28;20038;-72
2022/10/26 06:57:10;;;;;;;;;;;16.40;99.90;;;;;;4982559;28;20041;-73
2022/10/26 06:59:41;;;;;;;15.23;2.53;;;16.40;99.90;;;;;;4983714;28;20000;-73
2022/10/26 07:02:11;;;;;;;16.30;2.88;;;16.30;99.90;;;;;;4982174;28;20081;-72
2022/10/26 07:04:37;;;;;;;;;;;16.30;99.90;;;;;;4979037;28;20486;-73
2022/10/26 07:07:03;;;;;;;13.40;2.22;;;16.20;99.90;;;;;;4991364;28;19949;-73
2022/10/26 07:09:28;;;;;;;16.52;2.55;;;16.30;99.90;;;;;;4984467;28;20034;-73
2022/10/26 07:11:54;;;;;;;22.95;2.50;;;16.30;99.90;;;;;;4988163;28;20034;-73
2022/10/26 07:14:19;;;;;;;19.70;2.63;;;16.30;99.90;;;;;;4968774;28;20042;-73
2022/10/26 07:16:45;;;;;;;15.45;2.60;;;16.30;99.90;;;;;;4958728;28;20042;-73
2022/10/26 07:19:11;;;;;;;14.23;2.58;;;16.30;99.90;;;;;;4959232;28;20485;-73
2022/10/26 07:21:36;;;;;;;15.52;2.60;;;16.30;99.90;;;;;;4959469;28;20037;-73
2022/10/26 07:24:02;;;;;;;15.73;2.45;;;16.40;99.90;;;;;;4966972;28;20043;-73
2022/10/26 07:26:28;;;;;;;16.17;2.58;;;16.40;99.90;;;;;;4969509;28;20488;-73
2022/10/26 07:28:53;;;;;;;16.48;2.83;;;16.40;99.90;;;;;;4989899;28;20046;-73
2022/10/26 07:31:19;;;;;;;16.13;2.88;;;16.40;99.90;;;;;;4988712;28;20137;-73
2022/10/26 07:33:45;;;;;;;12.88;2.13;;;16.50;99.90;;;;;;4983568;28;20494;-73
2022/10/26 07:36:11;;;;;;;18.95;3.10;;;16.50;99.90;;;;;;4982794;28;20180;-72
2022/10/26 07:38:38;;;;;;;17.52;2.72;;;16.60;99.90;;;;;;4983418;28;20031;-73
2022/10/26 07:41:04;;;;;;;14.65;2.33;;;16.70;99.90;;;;;;4982356;28;20049;-75
2022/10/26 07:43:29;;;;;;;18.60;2.50;;;16.90;99.90;;;;;;4984210;28;20058;-72
2022/10/26 07:45:55;;;;;;;12.80;2.33;;;17.00;99.90;;;;;;4984895;28;20278;-73
2022/10/26 07:48:21;;;;;;;15.35;2.50;;;17.00;99.90;;;;;;4979922;28;20026;-73
2022/10/26 07:50:46;;;;;;;24.42;3.03;;;17.10;99.90;;;;;;4968729;28;20412;-73
2022/10/26 07:53:12;;;;;;;17.48;3.17;;;17.20;99.90;;;;;;4966903;28;20572;-73
2022/10/26 07:55:38;;;;;;;19.25;2.97;;;17.20;99.90;;;;;;4984304;28;20058;-73
2022/10/26 07:58:03;;;;;;;15.85;2.45;;;17.30;99.90;;;;;;4984704;28;20041;-73
2022/10/26 08:00:29;;;;;;;17.30;2.95;;;17.30;99.90;;;;;;4987319;28;20061;-73
2022/10/26 08:02:55;;;;;;;15.45;2.80;;;17.40;99.90;;;;;;4987263;28;20026;-73
2022/10/26 08:05:21;;;;;;;19.58;2.67;;;17.50;99.90;;;;;;4986321;28;20077;-73
2022/10/26 08:07:47;;;;;;;18.58;2.80;;;17.60;99.90;;;;;;4970520;28;20635;-73
2022/10/26 08:10:13;;;;;;;16.80;3.08;;;17.60;99.90;;;;;;4970743;28;20149;-73
2022/10/26 08:12:40;;;;;;;18.75;3.10;;;17.60;99.90;;;;;;4987674;28;20046;-73
2022/10/26 08:15:07;;;;;;;20.30;2.97;;;17.50;99.90;;;;;;4984959;28;20066;-73
2022/10/26 08:17:32;;;;;;;18.75;2.83;;;17.50;99.90;;;;;;4988338;28;20038;-79
2022/10/26 08:19:58;;;;;;;18.75;3.13;;;17.40;99.90;;;;;;4987010;28;20057;-73
2022/10/26 08:22:24;;;;;;;18.45;3.03;;;17.50;99.90;;;;;;4987325;28;20597;-73
2022/10/26 08:24:49;;;;;;;18.60;2.33;;;17.50;99.90;;;;;;4981058;28;20120;-74
2022/10/26 08:27:15;;;;;;;15.05;2.50;;;17.50;99.90;;;;;;4980673;28;20033;-72
2022/10/26 08:29:43;;;;;;;18.55;3.40;;;17.60;99.90;;;;;;4979924;28;20058;-73
2022/10/26 08:32:08;;;;;;;18.50;2.90;;;17.70;99.90;;;;;;4983979;28;20386;-73
2022/10/26 08:34:34;;;;;;;19.30;3.22;;;17.80;99.90;;;;;;4981471;28;20503;-71
2022/10/26 08:36:59;;;;;;;24.30;3.70;;;18.10;99.90;;;;;;4966617;28;20034;-72
2022/10/26 08:39:27;;;;;;;17.27;2.67;;;18.30;99.90;;;;;;4985315;28;20050;-72
2022/10/26 08:42:03;;;;;;;20.88;3.20;;;18.60;99.90;;;;;;4982895;28;20067;-73
2022/10/26 08:44:38;;;;;;;19.63;3.30;;;18.90;99.90;;;;;;4977638;28;20117;-73
2022/10/26 08:47:13;;;;;;;15.48;2.85;;;19.10;99.90;;;;;;4967558;28;20034;-72
2022/10/26 08:49:59;;;;;;;17.00;2.85;;;19.10;99.90;;;;;;4981463;28;20034;-73
2022/10/26 08:52:42;;;;;;;20.85;3.28;;;19.00;99.90;;;;;;4963950;28;20049;-73
2022/10/26 08:55:18;;;;;;;17.42;2.58;;;18.90;99.90;;;;;;4979073;28;20026;-75
2022/10/26 08:57:46;;;;;;;14.18;2.83;;;18.70;99.90;;;;;;4980620;28;20038;-73
2022/10/26 09:00:13;;;;;;;17.00;2.63;;;18.50;99.90;;;;;;4977514;28;20030;-73
2022/10/26 09:02:39;;;;;;;16.52;2.67;;;18.50;99.90;;;;;;4984591;28;20375;-72
2022/10/26 09:05:15;;;;;;;17.13;2.47;;;18.70;99.90;;;;;;4984962;28;20113;-73
2022/10/26 09:07:43;;;;;;;18.67;2.40;;;18.70;99.90;;;;;;4985762;28;20041;-73
2022/10/26 09:10:33;;;;;;;21.48;2.88;;;18.50;99.90;;;;;;4984148;28;20037;-74
2022/10/26 09:13:11;;;;;;;18.95;2.42;;;18.50;99.90;;;;;;4973349;28;20035;-74
2022/10/26 09:15:46;;;;;;;22.38;3.05;;;18.60;99.90;;;;;;4968540;28;20037;-74
2022/10/26 09:18:33;;;;;;;18.55;2.80;;;18.60;99.90;;;;;;4981441;28;20693;-73
2022/10/26 09:21:11;;;;;;;21.20;3.03;;;18.60;99.90;;;;;;4967940;28;20446;-72
2022/10/26 09:23:44;;;;;;;15.18;2.63;;;18.70;99.90;;;;;;4963705;28;20042;-76
2022/10/26 09:26:14;;;;;;;18.00;2.55;;;18.70;99.90;;;;;;4967223;28;20064;-73
2022/10/26 09:28:43;;;;;;;19.08;3.30;;;18.80;99.90;;;;;;4957725;28;20734;-72
2022/10/26 09:31:14;;;;;;;17.35;3.67;;;18.80;99.90;;;;;;4984452;28;20038;-74
2022/10/26 09:33:40;;;;;;;17.13;2.58;;;18.80;99.90;;;;;;4967860;28;20528;-72
2022/10/26 09:36:11;;;;;;;24.98;3.45;;;18.70;99.90;;;;;;4986428;28;20026;-74
2022/10/26 09:38:49;;;;;;;15.38;2.92;;;18.60;99.90;;;;;;4965164;28;20489;-71
2022/10/26 09:41:37;;;;;;;19.48;3.13;;;18.50;99.90;;;;;;4977556;28;20109;-72
2022/10/26 09:44:25;;;;;;;18.50;2.38;;;18.40;99.90;;;;;;4982692;28;20673;-71
2022/10/26 09:46:56;;;;;;;17.08;2.75;;;18.30;99.90;;;;;;4984413;28;20038;-72
2022/10/26 09:49:32;;;;;;;15.35;2.60;;;18.20;99.90;;;;;;4974317;28;20046;-72
2022/10/26 09:51:57;;;;;;;18.17;2.40;;;18.30;99.90;;;;;;4979806;28;20036;-72
2022/10/26 09:54:23;;;;;;;16.85;2.63;;;18.40;99.90;;;;;;4961961;28;20400;-79
2022/10/26 09:56:52;;;;;;;19.83;3.03;;;18.80;99.90;;;;;;4960457;28;21154;-75
2022/10/26 09:59:21;;;;;;;16.70;3.07;;;19.00;99.90;;;;;;4979001;28;20547;-73
2022/10/26 10:01:46;;;;;;;16.83;2.80;;;19.20;99.90;;;;;;4975452;28;20358;-73
2022/10/26 10:04:12;;;;;;;14.57;2.45;;;19.30;99.90;;;;;;4976081;28;20044;-72
2022/10/26 10:06:41;;;;;;;17.50;2.55;;;19.40;99.90;;;;;;4991959;28;20030;-72
2022/10/26 10:09:11;;;;;;;17.08;2.60;;;19.30;99.90;;;;;;4981527;28;20034;-72
2022/10/26 10:11:53;;;;;;;15.93;2.78;;;19.50;99.90;;;;;;4967495;28;20038;-72
2022/10/26 10:14:21;;;;;;;13.02;2.00;;;19.80;99.90;;;;;;4985881;28;20045;-75
2022/10/26 10:16:54;;;;;;;17.33;2.80;;;19.80;99.90;;;;;;4965209;28;20138;-73
2022/10/26 10:19:23;;;;;;;12.95;2.40;;;20.00;99.90;;;;;;4966538;28;20034;-73
2022/10/26 10:21:50;;;;;;;17.02;2.28;;;20.00;99.90;;;;;;4980044;28;20764;-73
2022/10/26 10:24:27;;;;;;;14.65;2.92;;;20.10;99.90;;;;;;4983960;28;20489;-73
2022/10/26 10:27:16;;;;;;;15.48;2.47;;;20.00;99.90;;;;;;4983569;28;20030;-72
2022/10/26 10:29:56;;;;;;;16.20;2.77;;;20.10;99.90;;;;;;4986607;28;20054;-73
2022/10/26 10:32:30;;;;;;;12.90;2.03;;;20.60;99.90;;;;;;4979630;28;20276;-74
2022/10/26 10:35:00;;;;;;;14.77;2.40;;;21.00;99.90;;;;;;4988862;28;20038;-71
2022/10/26 10:37:34;;;;;;;;;;;21.70;97.60;;;;;;4990545;28;20240;-70
2022/10/26 10:40:06;;;;;;;18.10;2.67;;;21.40;98.00;;;;;;4983669;28;20091;-72
2022/10/26 10:42:35;;;;;;;15.18;2.60;;;20.80;99.90;;;;;;4988473;28;20065;-73
2022/10/26 10:45:02;;;;;;;13.55;2.47;;;20.50;99.90;;;;;;4978087;28;20814;-72
2022/10/26 10:47:31;;;;;;;11.57;1.88;;;20.30;99.90;;;;;;4983560;28;20042;-72
2022/10/26 10:50:06;;;;;;;11.85;1.95;;;20.20;99.90;;;;;;4986716;28;20030;-72
2022/10/26 10:52:34;;;;;;;10.43;1.83;;;20.20;99.90;;;;;;4986222;28;20054;-73
2022/10/26 10:55:06;;;;;;;11.95;1.90;;;20.10;99.90;;;;;;4983399;28;20027;-73
2022/10/26 10:57:48;;;;;;;14.70;2.20;;;20.50;99.90;;;;;;4978505;28;20030;-73
2022/10/26 11:00:22;;;;;;;10.80;2.25;;;20.50;99.90;;;;;;4983872;28;20114;-73
2022/10/26 11:02:56;;;;;;;11.02;2.00;;;20.00;99.90;;;;;;4978162;28;20113;-73
2022/10/26 11:05:47;;;;;;;16.63;2.10;;;19.90;99.90;;;;;;4975173;28;20031;-72
2022/10/26 11:08:19;;;;;;;14.00;2.15;;;19.70;99.90;;;;;;4987396;28;20039;-75
2022/10/26 11:11:00;;;;;;;13.05;2.20;;;19.40;99.90;;;;;;4989747;28;20066;-73
2022/10/26 11:13:47;;;;;;;17.48;2.35;;;19.10;99.90;;;;;;4989810;28;20043;-72
2022/10/26 11:16:19;;;;;;;13.18;2.13;;;19.00;99.90;;;;;;4980673;28;20046;-72
2022/10/26 11:18:50;;;;;;;15.60;2.20;;;18.90;99.90;;;;;;4982629;28;20026;-71
2022/10/26 11:21:29;;;;;;;16.52;2.97;;;18.80;99.90;;;;;;4969847;28;20038;-74
2022/10/26 11:23:57;;;;;;;12.77;2.42;;;18.90;99.90;;;;;;4979904;28;20489;-74
2022/10/26 11:26:32;;;;;;;13.50;2.65;;;19.00;99.90;;;;;;4985273;28;20034;-72
2022/10/26 11:29:15;;;;;;;17.15;3.22;;;19.10;99.90;;;;;;4990115;28;20030;-73
2022/10/26 11:31:49;;;;;;;12.10;2.50;;;19.10;99.90;;;;;;4989935;28;20034;-73
2022/10/26 11:34:25;;;;;;;15.50;2.38;;;19.20;99.90;;;;;;4989358;28;20160;-73
2022/10/26 11:37:02;;;;;;;13.52;3.00;;;19.10;99.90;;;;;;4990151;28;20030;-74
2022/10/26 11:39:37;;;;;;;16.70;2.83;;;19.20;99.90;;;;;;4972350;28;20789;-73
2022/10/26 11:42:29;;;;;;;16.40;2.85;;;19.30;99.90;;;;;;4989619;28;20085;-73
2022/10/26 11:45:02;;;;;;;14.80;2.80;;;19.40;99.90;;;;;;4978657;28;20121;-75
2022/10/26 11:47:51;;;;;;;15.60;3.58;;;19.40;99.90;;;;;;4976591;28;20049;-72
2022/10/26 11:50:32;;;;;;;15.18;3.00;;;19.40;99.90;;;;;;4974006;28;20109;-72
2022/10/26 11:53:03;;;;;;;12.10;2.30;;;19.70;99.90;;;;;;4981609;28;20805;-74
2022/10/26 11:55:29;;;;;;;15.55;3.00;;;19.50;99.90;;;;;;4989744;28;20772;-72
2022/10/26 11:57:57;;;;;;;14.60;2.30;;;19.50;99.90;;;;;;4989481;28;20118;-73
2022/10/26 12:00:22;;;;;;;14.98;2.63;;;19.50;99.90;;;;;;4989108;28;20034;-73
2022/10/26 12:02:55;;;;;;;16.40;2.40;;;19.60;99.90;;;;;;4989303;28;20038;-72
2022/10/26 12:05:39;;;;;;;13.65;2.17;;;19.60;99.90;;;;;;4989698;28;20085;-76
2022/10/26 12:08:17;;;;;;;13.50;2.40;;;19.60;99.90;;;;;;4971837;28;20129;-76
2022/10/26 12:11:09;;;;;;;11.48;2.03;;;19.70;99.90;;;;;;4989268;28;20136;-74
2022/10/26 12:13:39;;;;;;;13.70;2.55;;;19.70;99.90;;;;;;4941399;28;20054;-73
2022/10/26 12:16:42;;;;;;;13.05;2.10;;;19.60;99.90;;;;;;4969660;28;20031;-72
2022/10/26 12:19:34;;;;;;;16.23;2.13;;;19.70;99.90;;;;;;4967985;28;20030;-73
2022/10/26 12:22:00;;;;;;;14.32;2.58;;;19.60;99.90;;;;;;4969897;28;20027;-73
2022/10/26 12:24:29;;;;;;;12.45;2.22;;;19.70;99.90;;;;;;4969751;28;20137;-73
2022/10/26 12:27:03;;;;;;;15.60;2.60;;;19.70;99.90;;;;;;4969803;28;20034;-74
2022/10/26 12:29:46;;;;;;;13.75;2.30;;;19.80;99.90;;;;;;4969806;28;20031;-71
2022/10/26 12:32:29;;;;;;;11.38;2.38;;;19.80;99.90;;;;;;4969809;28;20052;-72
2022/10/26 12:34:56;;;;;;;16.35;2.38;;;19.60;99.90;;;;;;4969801;28;20122;-73
2022/10/26 12:37:29;;;;;;;18.02;2.40;;;19.50;99.90;;;;;;4969502;28;20074;-74
2022/10/26 12:39:54;;;;;;;10.85;2.22;;;19.60;99.90;;;;;;4969379;28;20066;-74
2022/10/26 12:42:23;;;;;;;13.70;2.13;;;19.50;99.90;;;;;;4969294;28;20066;-73
2022/10/26 12:44:52;;;;;;;13.75;2.80;;;19.60;99.90;;;;;;4969289;28;20096;-73
2022/10/26 12:47:27;;;;;;;14.30;2.10;;;19.60;99.90;;;;;;4969147;28;20027;-73
2022/10/26 12:50:04;;;;;;;15.98;2.67;;;19.60;99.90;;;;;;4967857;28;20081;-76
2022/10/26 12:52:49;;;;;;;16.27;2.85;;;19.60;99.90;;;;;;4967790;28;20037;-73
2022/10/26 12:55:29;;;;;;;13.27;2.40;;;19.60;99.90;;;;;;4969490;28;20066;-73
2022/10/26 12:58:07;;;;;;;14.80;2.47;;;19.60;99.90;;;;;;4968900;28;20046;-73